Time;durP1;ratioP1;P1;durP2;ratioP2;P2;SDS_P1;SDS_P2;PMS_P1;PMS_P2;Temp;Humidity;BMP_temperature;BMP_pressure;BME280_temperature;BME280_humidity;BME280_pressure;Samples;Min_cycle;Max_cycle;Signal;HPM_P1;HPM_P2
2023/07/03 00:02:02;;;;;;;21.60;2.80;;;17.90;99.90;;;;;;5073203;28;20392;-62
2023/07/03 00:04:27;;;;;;;16.80;2.83;;;17.80;99.90;;;;;;5073031;28;20476;-61
2023/07/03 00:06:53;;;;;;;11.00;2.22;;;17.80;99.90;;;;;;5064828;28;20024;-62
2023/07/03 00:09:19;;;;;;;21.23;2.60;;;17.80;99.90;;;;;;5071057;28;20024;-61
2023/07/03 00:11:44;;;;;;;7.18;1.88;;;17.80;99.90;;;;;;5072764;28;20078;-62
2023/07/03 00:14:10;;;;;;;12.55;2.45;;;17.80;99.90;;;;;;5072851;28;20385;-63
2023/07/03 00:16:36;;;;;;;16.67;2.97;;;17.80;99.90;;;;;;5072795;28;20017;-64
2023/07/03 00:19:01;;;;;;;10.68;2.42;;;17.80;99.90;;;;;;5072746;28;20028;-64
2023/07/03 00:21:27;;;;;;;23.48;3.67;;;17.70;99.90;;;;;;5072745;28;20064;-60
2023/07/03 00:23:52;;;;;;;21.85;3.42;;;17.70;99.90;;;;;;5070792;28;20048;-61
2023/07/03 00:26:19;;;;;;;8.18;2.63;;;17.70;99.90;;;;;;5072635;28;20017;-62
2023/07/03 00:28:44;;;;;;;27.25;3.58;;;17.60;99.90;;;;;;5070661;28;20082;-63
2023/07/03 00:31:10;;;;;;;20.38;3.58;;;17.70;99.90;;;;;;5072695;28;20016;-64
2023/07/03 00:33:36;;;;;;;26.83;3.00;;;17.60;99.90;;;;;;5072488;28;20100;-62
2023/07/03 00:36:01;;;;;;;20.75;3.60;;;17.60;99.90;;;;;;5070140;28;20439;-65
2023/07/03 00:38:28;;;;;;;27.27;3.30;;;17.60;99.90;;;;;;5070133;28;20532;-63
2023/07/03 00:40:54;;;;;;;9.45;1.73;;;17.60;99.90;;;;;;5071540;28;20112;-63
2023/07/03 00:43:19;;;;;;;16.50;3.25;;;17.60;99.90;;;;;;5072488;28;20121;-64
2023/07/03 00:45:46;;;;;;;15.55;2.75;;;17.50;99.90;;;;;;5071299;28;20029;-62
2023/07/03 00:48:12;;;;;;;14.00;3.58;;;17.50;99.90;;;;;;5072421;28;20112;-62
2023/07/03 00:50:37;;;;;;;15.35;3.58;;;17.60;99.90;;;;;;5072479;28;20115;-62
2023/07/03 00:53:05;;;;;;;19.25;3.05;;;17.50;99.90;;;;;;5072488;28;20456;-62
2023/07/03 00:55:31;;;;;;;19.25;3.17;;;17.50;99.90;;;;;;5065783;28;20036;-63
2023/07/03 00:57:57;;;;;;;13.48;2.67;;;17.50;99.90;;;;;;5072385;28;20039;-61
2023/07/03 01:00:30;;;;;;;14.40;3.40;;;17.50;99.90;;;;;;5071215;28;20029;-62
2023/07/03 01:03:16;;;;;;;27.08;5.10;;;17.50;99.90;;;;;;5072013;28;20028;-62
2023/07/03 01:05:49;;;;;;;23.17;3.40;;;17.40;99.90;;;;;;5070504;28;20036;-62
2023/07/03 01:08:15;;;;;;;26.63;3.58;;;17.30;99.90;;;;;;5072159;28;20073;-61
2023/07/03 01:10:41;;;;;;;15.52;2.88;;;17.40;99.90;;;;;;5069340;28;20025;-61
2023/07/03 01:13:13;;;;;;;20.60;3.38;;;17.30;99.90;;;;;;5071524;28;20040;-61
2023/07/03 01:15:43;;;;;;;15.13;3.63;;;17.30;99.90;;;;;;5070186;28;20031;-63
2023/07/03 01:18:10;;;;;;;17.20;4.93;;;17.30;99.90;;;;;;5069198;28;20028;-61
2023/07/03 01:20:58;;;;;;;16.55;3.85;;;17.20;99.90;;;;;;5072231;28;20489;-64
2023/07/03 01:23:42;;;;;;;14.82;2.53;;;17.20;99.90;;;;;;5056519;28;20024;-62
2023/07/03 01:26:10;;;;;;;19.40;2.67;;;17.20;99.90;;;;;;5068643;28;20033;-62
2023/07/03 01:28:37;;;;;;;13.07;3.15;;;17.20;99.90;;;;;;5070934;28;20021;-63
2023/07/03 01:31:07;;;;;;;27.50;4.05;;;17.20;99.90;;;;;;5068402;28;20111;-62
2023/07/03 01:33:34;;;;;;;21.50;2.58;;;17.20;99.90;;;;;;5070934;28;20552;-61
2023/07/03 01:36:01;;;;;;;25.77;4.25;;;17.20;99.90;;;;;;5070955;28;20020;-63
2023/07/03 01:38:28;;;;;;;14.60;2.60;;;17.20;99.90;;;;;;5072089;28;20021;-61
2023/07/03 01:40:57;;;;;;;14.63;1.85;;;17.30;99.90;;;;;;5070496;28;20024;-63
2023/07/03 01:43:23;;;;;;;26.35;3.88;;;17.20;99.90;;;;;;5070821;28;20384;-61
2023/07/03 01:45:49;;;;;;;14.75;3.72;;;17.30;99.90;;;;;;5069943;28;20032;-63
2023/07/03 01:48:15;;;;;;;19.92;3.72;;;17.20;99.90;;;;;;5075474;28;20381;-64
2023/07/03 01:50:43;;;;;;;16.63;4.20;;;17.20;99.90;;;;;;5075338;28;20016;-64
2023/07/03 01:53:27;;;;;;;10.23;2.95;;;17.20;99.90;;;;;;5074242;28;20027;-63
2023/07/03 01:56:28;;;;;;;18.35;3.20;;;17.20;99.90;;;;;;5067374;28;20036;-64
2023/07/03 01:59:06;;;;;;;14.55;2.85;;;17.20;99.90;;;;;;5072244;28;20494;-63
2023/07/03 02:01:45;;;;;;;12.70;3.05;;;17.20;99.90;;;;;;5075626;28;20061;-61
2023/07/03 02:04:24;;;;;;;20.95;2.83;;;17.20;99.90;;;;;;5074497;28;20025;-63
2023/07/03 02:06:51;;;;;;;24.15;3.75;;;17.20;99.90;;;;;;5075482;28;20027;-62
2023/07/03 02:09:17;;;;;;;16.77;3.35;;;17.20;99.90;;;;;;5072455;28;20016;-65
2023/07/03 02:11:45;;;;;;;17.20;3.00;;;17.20;99.90;;;;;;5072274;28;20040;-65
2023/07/03 02:14:11;;;;;;;15.85;3.22;;;17.10;99.90;;;;;;5073036;28;20020;-62
2023/07/03 02:16:38;;;;;;;20.52;4.20;;;17.10;99.90;;;;;;5075279;28;20610;-62
2023/07/03 02:19:05;;;;;;;24.50;3.90;;;17.10;99.90;;;;;;5073135;28;20052;-62
2023/07/03 02:21:30;;;;;;;24.40;4.05;;;17.10;99.90;;;;;;5073554;28;20070;-64
2023/07/03 02:23:56;;;;;;;17.75;3.97;;;17.20;99.90;;;;;;5074688;28;20500;-62
2023/07/03 02:26:22;;;;;;;31.95;4.80;;;17.20;99.90;;;;;;5073869;28;20017;-62
2023/07/03 02:28:47;;;;;;;20.50;3.25;;;17.10;99.90;;;;;;5073682;28;20052;-63
2023/07/03 02:31:13;;;;;;;18.73;3.30;;;17.10;99.90;;;;;;5074690;28;20020;-62
2023/07/03 02:33:38;;;;;;;17.05;3.03;;;17.10;99.90;;;;;;5074613;28;20025;-62
2023/07/03 02:36:05;;;;;;;18.55;3.72;;;17.10;99.90;;;;;;5073346;28;20024;-63
2023/07/03 02:38:30;;;;;;;18.13;2.40;;;17.10;99.90;;;;;;5073190;28;20103;-64
2023/07/03 02:40:56;;;;;;;19.45;3.00;;;17.10;99.90;;;;;;5073671;28;20519;-62
2023/07/03 02:43:22;;;;;;;28.70;3.92;;;17.10;99.90;;;;;;5073842;28;20393;-61
2023/07/03 02:45:48;;;;;;;16.17;3.95;;;17.10;99.90;;;;;;5073542;28;20021;-62
2023/07/03 02:48:15;;;;;;;16.52;2.97;;;17.10;99.90;;;;;;5073043;28;20032;-61
2023/07/03 02:50:41;;;;;;;18.00;3.08;;;17.20;99.90;;;;;;5074327;28;20063;-61
2023/07/03 02:53:07;;;;;;;20.00;2.85;;;17.20;99.90;;;;;;5074282;28;20442;-63
2023/07/03 02:55:33;;;;;;;15.82;3.05;;;17.20;99.90;;;;;;5071705;28;20090;-61
2023/07/03 02:57:59;;;;;;;15.13;2.97;;;17.20;99.90;;;;;;5071667;28;20036;-63
2023/07/03 03:00:25;;;;;;;19.73;4.50;;;17.20;99.90;;;;;;5074126;28;20023;-61
2023/07/03 03:02:51;;;;;;;21.88;3.35;;;17.20;99.90;;;;;;5072147;28;20354;-61
2023/07/03 03:05:16;;;;;;;14.68;2.83;;;17.20;99.90;;;;;;5073217;28;20027;-62
2023/07/03 03:07:42;;;;;;;18.83;3.42;;;17.20;99.90;;;;;;5072677;28;20032;-61
2023/07/03 03:10:08;;;;;;;14.60;4.20;;;17.20;99.90;;;;;;5073358;28;20039;-62
2023/07/03 03:12:34;;;;;;;16.55;2.65;;;17.20;99.90;;;;;;5071861;28;20035;-63
2023/07/03 03:14:59;;;;;;;11.88;2.60;;;17.10;99.90;;;;;;5073415;28;20025;-63
2023/07/03 03:17:25;;;;;;;11.18;3.33;;;17.20;99.90;;;;;;5073713;28;20115;-63
2023/07/03 03:19:51;;;;;;;17.73;4.03;;;17.20;99.90;;;;;;5073638;28;20388;-63
2023/07/03 03:22:17;;;;;;;21.00;2.30;;;17.10;99.90;;;;;;5072633;28;20025;-63
2023/07/03 03:24:43;;;;;;;15.88;2.97;;;17.10;99.90;;;;;;5071824;28;20048;-63
2023/07/03 03:27:08;;;;;;;17.73;2.67;;;17.10;99.90;;;;;;5072118;28;20511;-63
2023/07/03 03:29:38;;;;;;;7.88;1.70;;;17.00;99.90;;;;;;5059377;28;20059;-63
2023/07/03 03:32:05;;;;;;;10.02;1.30;;;16.90;99.90;;;;;;5055229;28;20040;-64
2023/07/03 03:34:34;;;;;;;3.90;1.30;;;16.80;99.90;;;;;;5063719;28;20028;-64
2023/07/03 03:36:59;;;;;;;8.38;1.75;;;16.80;99.90;;;;;;5073638;28;20108;-63
2023/07/03 03:39:25;;;;;;;10.73;1.40;;;16.80;99.90;;;;;;5071803;28;20103;-61
2023/07/03 03:41:51;;;;;;;7.82;1.30;;;16.80;99.90;;;;;;5072796;28;20090;-63
2023/07/03 03:44:16;;;;;;;4.25;1.00;;;16.80;99.90;;;;;;5073262;28;20033;-64
2023/07/03 03:46:42;;;;;;;6.25;1.48;;;16.90;99.90;;;;;;5073266;28;20464;-63
2023/07/03 03:49:09;;;;;;;5.82;1.00;;;16.90;99.90;;;;;;5072148;28;20029;-64
2023/07/03 03:51:35;;;;;;;1.40;1.02;;;16.90;99.90;;;;;;5071297;28;20369;-63
2023/07/03 03:54:00;;;;;;;8.60;1.40;;;17.00;99.90;;;;;;5073066;28;20025;-66
2023/07/03 03:56:26;;;;;;;1.67;0.90;;;17.00;99.90;;;;;;5070897;28;20024;-63
2023/07/03 03:58:51;;;;;;;2.80;0.88;;;17.00;99.90;;;;;;5071573;28;20036;-63
2023/07/03 04:01:17;;;;;;;2.40;0.80;;;17.00;99.90;;;;;;5071896;28;20483;-63
2023/07/03 04:03:43;;;;;;;7.53;0.98;;;17.00;99.90;;;;;;5071491;28;20020;-64
2023/07/03 04:06:09;;;;;;;5.85;1.02;;;17.00;99.90;;;;;;5071936;28;20401;-64
2023/07/03 04:08:35;;;;;;;6.40;1.45;;;17.10;99.90;;;;;;5072366;28;20073;-65
2023/07/03 04:11:02;;;;;;;4.40;0.73;;;17.00;99.90;;;;;;5070660;28;20032;-64
2023/07/03 04:13:28;;;;;;;8.40;1.25;;;17.00;99.90;;;;;;5069475;28;20028;-64
2023/07/03 04:15:53;;;;;;;5.95;1.40;;;17.00;99.90;;;;;;5073061;28;20028;-64
2023/07/03 04:18:23;;;;;;;10.40;1.38;;;16.90;99.90;;;;;;5070807;28;20074;-64
2023/07/03 04:20:48;;;;;;;6.28;1.13;;;16.90;99.90;;;;;;5071950;28;20033;-63
2023/07/03 04:23:15;;;;;;;5.10;1.30;;;16.90;99.90;;;;;;5071368;28;20515;-64
2023/07/03 04:25:44;;;;;;;8.57;1.50;;;16.80;99.90;;;;;;5071346;28;20032;-65
2023/07/03 04:28:10;;;;;;;1.52;0.90;;;16.70;99.90;;;;;;5069364;28;20027;-64
2023/07/03 04:30:36;;;;;;;9.35;1.48;;;16.80;99.90;;;;;;5088213;28;20056;-65
2023/07/03 04:33:02;;;;;;;2.55;0.90;;;16.70;99.90;;;;;;5072670;28;20515;-65
2023/07/03 04:35:28;;;;;;;4.68;1.38;;;16.70;99.90;;;;;;5069462;28;20447;-64
2023/07/03 04:37:53;;;;;;;4.40;1.35;;;16.70;99.90;;;;;;5072046;28;20017;-64
2023/07/03 04:40:20;;;;;;;4.22;0.90;;;16.70;99.90;;;;;;5070757;28;20075;-65
2023/07/03 04:42:45;;;;;;;3.55;0.70;;;16.70;99.90;;;;;;5067750;28;20028;-64
2023/07/03 04:45:13;;;;;;;5.28;1.40;;;16.70;99.90;;;;;;5068036;28;20256;-64
2023/07/03 04:47:39;;;;;;;6.97;1.48;;;16.70;99.90;;;;;;5070324;28;20477;-63
2023/07/03 04:50:07;;;;;;;6.68;1.33;;;16.70;99.90;;;;;;5070970;28;20075;-64
2023/07/03 04:52:38;;;;;;;6.88;0.77;;;16.80;99.90;;;;;;5072462;28;20052;-65
2023/07/03 04:55:09;;;;;;;4.00;0.80;;;16.80;99.90;;;;;;5070581;28;20100;-65
2023/07/03 04:57:42;;;;;;;6.95;1.23;;;16.90;99.90;;;;;;5070166;28;20032;-64
2023/07/03 05:00:14;;;;;;;10.80;0.98;;;16.90;99.90;;;;;;5072405;28;20098;-64
2023/07/03 05:02:45;;;;;;;4.88;1.10;;;17.00;99.90;;;;;;5070626;28;20108;-65
2023/07/03 05:05:11;;;;;;;7.95;1.10;;;17.00;99.90;;;;;;5071084;28;20025;-64
2023/07/03 05:07:41;;;;;;;6.53;1.30;;;17.10;99.90;;;;;;5068037;28;20388;-64
2023/07/03 05:10:09;;;;;;;4.95;1.05;;;17.10;99.90;;;;;;5072580;28;20013;-65
2023/07/03 05:12:35;;;;;;;7.53;1.48;;;17.10;99.90;;;;;;5070082;28;20025;-65
2023/07/03 05:15:03;;;;;;;7.70;1.00;;;17.10;99.90;;;;;;5072220;28;20523;-65
2023/07/03 05:17:28;;;;;;;16.25;1.20;;;17.10;99.90;;;;;;5071074;28;20496;-66
2023/07/03 05:19:55;;;;;;;5.57;2.10;;;17.20;99.90;;;;;;5072219;28;20025;-64
2023/07/03 05:22:21;;;;;;;9.43;1.90;;;17.10;99.90;;;;;;5072648;28;20029;-66
2023/07/03 05:24:47;;;;;;;7.32;1.15;;;17.10;99.90;;;;;;5074393;28;20120;-66
2023/07/03 05:27:13;;;;;;;6.25;1.45;;;17.20;99.90;;;;;;5072946;28;20140;-65
2023/07/03 05:29:39;;;;;;;8.68;1.85;;;17.10;99.90;;;;;;5075845;28;20021;-65
2023/07/03 05:32:05;;;;;;;4.93;1.02;;;17.00;99.90;;;;;;5074476;28;20483;-65
2023/07/03 05:34:32;;;;;;;9.90;1.27;;;17.10;99.90;;;;;;5075942;28;20024;-64
2023/07/03 05:36:58;;;;;;;6.10;1.02;;;17.10;99.90;;;;;;5074603;28;20025;-66
2023/07/03 05:39:24;;;;;;;5.47;1.15;;;17.10;99.90;;;;;;5073795;28;20503;-65
2023/07/03 05:41:50;;;;;;;5.47;1.23;;;17.10;99.90;;;;;;5073315;28;20425;-65
2023/07/03 05:44:18;;;;;;;12.15;1.77;;;17.10;99.90;;;;;;5075597;28;20096;-65
2023/07/03 05:46:44;;;;;;;3.42;1.23;;;17.20;99.90;;;;;;5072451;28;20025;-64
2023/07/03 05:49:10;;;;;;;6.20;1.15;;;17.20;99.90;;;;;;5073161;28;20103;-65
2023/07/03 05:51:36;;;;;;;3.50;1.10;;;17.30;99.90;;;;;;5075474;28;20027;-62
2023/07/03 05:54:02;;;;;;;14.98;1.60;;;17.30;99.90;;;;;;5072053;28;21189;-64
2023/07/03 05:56:28;;;;;;;8.43;1.60;;;17.30;99.90;;;;;;5080872;28;20170;-64
2023/07/03 05:58:54;;;;;;;4.85;1.30;;;17.40;99.90;;;;;;5075322;28;20020;-64
2023/07/03 06:01:20;;;;;;;5.60;1.50;;;17.50;99.90;;;;;;5074677;28;20037;-65
2023/07/03 06:03:47;;;;;;;8.48;1.63;;;17.50;99.90;;;;;;5073288;28;20393;-64
2023/07/03 06:06:13;;;;;;;;;;;17.50;99.90;;;;;;5075639;28;20020;-64
2023/07/03 06:08:39;;;;;;;2.97;0.70;;;17.50;99.90;;;;;;5073454;28;19911;-64
2023/07/03 06:11:05;;;;;;;5.78;1.38;;;17.50;99.90;;;;;;5069017;28;20020;-65
2023/07/03 06:13:30;;;;;;;8.10;2.40;;;17.50;99.90;;;;;;5075023;28;20086;-64
2023/07/03 06:15:56;;;;;;;6.03;1.58;;;17.40;99.90;;;;;;5072441;28;20024;-61
2023/07/03 06:18:22;;;;;;;5.88;1.33;;;17.40;99.90;;;;;;5072499;28;20033;-63
2023/07/03 06:20:48;;;;;;;4.28;1.30;;;17.40;99.90;;;;;;5072901;28;20036;-64
2023/07/03 06:23:15;;;;;;;4.00;1.60;;;17.40;99.90;;;;;;5070016;28;20032;-64
2023/07/03 06:25:41;;;;;;;2.13;1.08;;;17.50;99.90;;;;;;5073596;28;20070;-64
2023/07/03 06:28:06;;;;;;;4.15;1.33;;;17.70;99.90;;;;;;5072352;28;20477;-63
2023/07/03 06:30:32;;;;;;;8.50;1.13;;;17.80;99.90;;;;;;5074625;28;20025;-64
2023/07/03 06:32:58;;;;;;;1.90;0.80;;;17.90;99.90;;;;;;5072011;28;20485;-65
2023/07/03 06:35:24;;;;;;;5.60;1.70;;;17.90;99.90;;;;;;5073864;28;20109;-62
2023/07/03 06:37:52;;;;;;;5.35;1.40;;;17.90;99.90;;;;;;5074664;28;20500;-64
2023/07/03 06:40:19;;;;;;;3.90;1.10;;;17.80;99.90;;;;;;5072930;28;20528;-62
2023/07/03 06:42:45;;;;;;;6.90;1.50;;;18.00;99.90;;;;;;5072525;28;20116;-62
2023/07/03 06:45:11;;;;;;;8.55;1.33;;;18.00;99.90;;;;;;5072236;28;20138;-62
2023/07/03 06:47:37;;;;;;;6.43;1.50;;;18.30;99.90;;;;;;5074322;28;20528;-62
2023/07/03 06:50:03;;;;;;;9.48;1.17;;;18.60;99.90;;;;;;5073087;28;20103;-62
2023/07/03 06:52:29;;;;;;;3.90;0.85;;;18.70;99.90;;;;;;5070519;28;20434;-62
2023/07/03 06:54:54;;;;;;;10.70;1.17;;;18.70;99.90;;;;;;5057316;28;20055;-62
2023/07/03 06:57:20;;;;;;;4.82;1.20;;;18.90;99.90;;;;;;5071268;28;20029;-64
2023/07/03 06:59:46;;;;;;;6.78;1.17;;;19.20;99.90;;;;;;5074121;28;20029;-64
2023/07/03 07:02:11;;;;;;;11.57;2.35;;;19.50;99.90;;;;;;5072654;28;20481;-64
2023/07/03 07:04:37;;;;;;;4.57;1.52;;;19.90;99.90;;;;;;5074366;28;20389;-63
2023/07/03 07:07:03;;;;;;;5.07;1.50;;;19.90;99.90;;;;;;5074012;28;20020;-64
2023/07/03 07:09:28;;;;;;;4.50;1.10;;;19.60;99.90;;;;;;5070555;28;20484;-64
2023/07/03 07:11:54;;;;;;;10.45;1.00;;;19.50;99.90;;;;;;5072853;28;20095;-59
2023/07/03 07:14:20;;;;;;;2.30;1.00;;;19.40;99.90;;;;;;5073854;28;20032;-61
2023/07/03 07:16:45;;;;;;;4.43;1.13;;;19.90;99.90;;;;;;5072211;28;20021;-65
2023/07/03 07:19:11;;;;;;;5.40;1.00;;;21.10;99.90;;;;;;5073496;28;20099;-64
2023/07/03 07:21:41;;;;;;;6.50;1.27;;;21.50;99.90;;;;;;5073858;28;20481;-67
2023/07/03 07:24:16;;;;;;;4.82;1.25;;;21.00;99.90;;;;;;5070691;28;20044;-65
2023/07/03 07:26:42;;;;;;;5.45;1.20;;;20.60;99.90;;;;;;5073586;28;20107;-62
2023/07/03 07:29:08;;;;;;;5.93;1.10;;;20.20;99.90;;;;;;5062930;28;20473;-66
2023/07/03 07:31:37;;;;;;;12.73;2.20;;;20.00;99.90;;;;;;5061110;28;20154;-65
2023/07/03 07:34:05;;;;;;;11.02;1.02;;;20.10;99.90;;;;;;5064305;28;20079;-62
2023/07/03 07:36:31;;;;;;;;;;;21.00;99.90;;;;;;5067851;28;20024;-64
2023/07/03 07:38:59;;;;;;;9.75;1.67;;;22.30;99.90;;;;;;5067511;28;20373;-61
2023/07/03 07:41:25;;;;;;;4.00;1.33;;;23.30;98.30;;;;;;5070913;28;20582;-63
2023/07/03 07:43:51;;;;;;;19.40;1.55;;;23.60;97.60;;;;;;5071260;28;20060;-62
2023/07/03 07:46:17;;;;;;;4.25;0.95;;;23.80;97.60;;;;;;5071771;28;20020;-57
2023/07/03 07:48:45;;;;;;;10.02;1.45;;;22.20;98.10;;;;;;5068927;28;20105;-54
2023/07/03 07:51:11;;;;;;;7.47;2.22;;;21.20;99.40;;;;;;5070858;28;20020;-54
2023/07/03 07:53:38;;;;;;;6.63;1.08;;;21.00;99.70;;;;;;5070226;28;20093;-58
2023/07/03 07:56:05;;;;;;;4.82;2.17;;;20.60;99.90;;;;;;5068596;28;20191;-60
2023/07/03 07:58:31;;;;;;;7.63;1.15;;;20.00;99.90;;;;;;5071000;28;20031;-60
2023/07/03 08:00:57;;;;;;;3.83;1.05;;;19.60;99.90;;;;;;5062104;28;20025;-59
2023/07/03 08:03:24;;;;;;;5.72;1.80;;;19.30;99.90;;;;;;5069383;28;20029;-59
2023/07/03 08:05:50;;;;;;;4.57;1.10;;;18.90;99.90;;;;;;5071845;28;20111;-57
2023/07/03 08:08:16;;;;;;;6.32;1.38;;;18.80;99.90;;;;;;5070830;28;20012;-60
2023/07/03 08:10:41;;;;;;;7.85;1.13;;;18.60;99.90;;;;;;5072598;28;20389;-60
2023/07/03 08:13:07;;;;;;;6.30;0.77;;;18.50;99.90;;;;;;5071749;28;20032;-58
2023/07/03 08:15:33;;;;;;;2.60;0.80;;;18.40;99.90;;;;;;5072726;28;20056;-59
2023/07/03 08:17:59;;;;;;;7.72;1.52;;;18.40;99.90;;;;;;5070365;28;20017;-57
2023/07/03 08:20:24;;;;;;;5.28;1.83;;;18.30;99.90;;;;;;5071627;28;20036;-62
2023/07/03 08:22:50;;;;;;;9.52;1.08;;;18.30;99.90;;;;;;5069989;28;20504;-64
2023/07/03 08:25:16;;;;;;;5.18;0.77;;;18.20;99.90;;;;;;5069433;28;20051;-61
2023/07/03 08:27:46;;;;;;;6.80;1.13;;;18.10;99.90;;;;;;5070198;28;20020;-59
2023/07/03 08:30:13;;;;;;;8.57;1.10;;;18.00;99.90;;;;;;5071148;28;20077;-60
2023/07/03 08:32:40;;;;;;;5.88;1.38;;;18.00;99.90;;;;;;5070575;28;20029;-61
2023/07/03 08:35:07;;;;;;;5.60;0.95;;;18.10;99.90;;;;;;5072574;28;20025;-55
2023/07/03 08:37:33;;;;;;;5.53;1.40;;;18.30;99.90;;;;;;5071251;28;20029;-60
2023/07/03 08:39:58;;;;;;;4.18;1.40;;;18.40;99.90;;;;;;5069635;28;20094;-59
2023/07/03 08:42:33;;;;;;;5.07;0.98;;;18.60;99.90;;;;;;5072287;28;20034;-59
2023/07/03 08:45:01;;;;;;;7.22;1.20;;;18.90;99.90;;;;;;5072450;28;20052;-59
2023/07/03 08:47:30;;;;;;;6.80;1.10;;;18.90;99.90;;;;;;5070581;28;20055;-56
2023/07/03 08:49:57;;;;;;;5.60;1.33;;;19.00;99.90;;;;;;5069217;28;20157;-53
2023/07/03 08:53:04;;;;;;;11.82;2.20;;;19.00;99.90;;;;;;5070377;28;20078;-61
2023/07/03 08:55:48;;;;;;;9.02;1.58;;;18.90;99.90;;;;;;5072845;28;20105;-61
2023/07/03 08:58:13;;;;;;;5.95;1.10;;;18.60;99.90;;;;;;5074895;28;20047;-58
2023/07/03 09:00:53;;;;;;;6.60;1.10;;;18.60;99.90;;;;;;5076315;28;20064;-60
2023/07/03 09:03:53;;;;;;;6.85;1.20;;;18.80;99.90;;;;;;5076264;28;20017;-59
2023/07/03 09:06:26;;;;;;;7.18;1.52;;;18.90;99.90;;;;;;5075408;28;20037;-58
2023/07/03 09:09:18;;;;;;;12.95;1.83;;;19.50;99.90;;;;;;5076073;28;20478;-60
2023/07/03 09:11:51;;;;;;;7.80;1.23;;;20.00;99.90;;;;;;5076192;28;20095;-60
2023/07/03 09:14:24;;;;;;;4.38;1.55;;;20.00;99.90;;;;;;5076174;28;20013;-59
2023/07/03 09:16:49;;;;;;;5.65;1.13;;;19.80;99.90;;;;;;5076407;28;20028;-62
2023/07/03 09:19:25;;;;;;;4.72;1.20;;;19.70;99.90;;;;;;5076017;28;20025;-57
2023/07/03 09:21:59;;;;;;;4.10;0.90;;;19.50;99.90;;;;;;5075954;28;20028;-61
2023/07/03 09:24:40;;;;;;;5.57;1.40;;;19.40;99.90;;;;;;5075702;28;20538;-61
2023/07/03 09:27:17;;;;;;;7.72;1.13;;;19.20;99.90;;;;;;5075777;28;20032;-61
2023/07/03 09:29:43;;;;;;;5.15;0.98;;;19.10;99.90;;;;;;5075937;28;20063;-60
2023/07/03 09:32:28;;;;;;;4.90;1.27;;;19.10;99.90;;;;;;5076022;28;20469;-59
2023/07/03 09:35:31;;;;;;;5.15;1.25;;;18.90;99.90;;;;;;5076099;28;20528;-53
2023/07/03 09:38:01;;;;;;;4.38;1.23;;;18.80;99.90;;;;;;5073932;28;20040;-60
2023/07/03 09:40:32;;;;;;;2.50;1.08;;;19.00;99.90;;;;;;5075620;28;20063;-60
2023/07/03 09:42:59;;;;;;;8.45;1.13;;;18.90;99.90;;;;;;5075502;28;20104;-61
2023/07/03 09:45:31;;;;;;;7.57;1.80;;;18.90;99.90;;;;;;5074349;28;20029;-62
2023/07/03 09:47:59;;;;;;;5.85;1.10;;;18.90;99.90;;;;;;5075553;28;20358;-61
2023/07/03 09:50:27;;;;;;;7.30;1.45;;;18.90;99.90;;;;;;5075485;28;20025;-62
2023/07/03 09:52:55;;;;;;;9.82;1.77;;;19.00;99.90;;;;;;5075444;28;20028;-61
2023/07/03 09:55:21;;;;;;;3.58;1.10;;;18.90;99.90;;;;;;5075432;28;20031;-60
2023/07/03 09:57:47;;;;;;;5.30;1.52;;;18.80;99.90;;;;;;5075386;28;20099;-58
2023/07/03 10:00:16;;;;;;;6.47;2.20;;;18.80;99.90;;;;;;5075333;28;20025;-60
2023/07/03 10:02:45;;;;;;;6.05;1.58;;;18.80;99.90;;;;;;5075198;28;20029;-57
2023/07/03 10:05:15;;;;;;;2.97;1.00;;;18.90;99.90;;;;;;5075208;28;20017;-61
2023/07/03 10:07:44;;;;;;;11.95;1.55;;;19.00;99.90;;;;;;5074209;28;20078;-60
2023/07/03 10:10:13;;;;;;;5.15;1.00;;;19.00;99.90;;;;;;5075077;28;20542;-52
2023/07/03 10:12:59;;;;;;;8.80;1.38;;;19.00;99.90;;;;;;5075127;28;20051;-54
2023/07/03 10:15:33;;;;;;;5.68;2.17;;;19.10;99.90;;;;;;5073867;28;20032;-51
2023/07/03 10:18:26;;;;;;;4.93;1.65;;;19.20;99.90;;;;;;5075000;28;20021;-58
2023/07/03 10:20:52;;;;;;;5.85;1.38;;;19.30;99.90;;;;;;5077223;28;20055;-59
2023/07/03 10:23:25;;;;;;;6.07;1.30;;;19.50;99.90;;;;;;5074530;28;20024;-62
2023/07/03 10:25:59;;;;;;;5.80;0.95;;;19.90;99.90;;;;;;5074915;28;20115;-61
2023/07/03 10:28:34;;;;;;;8.27;1.58;;;20.40;99.90;;;;;;5074750;28;20017;-60
2023/07/03 10:31:05;;;;;;;5.45;1.98;;;20.60;99.90;;;;;;5074828;28;20027;-60
2023/07/03 10:33:34;;;;;;;6.38;1.42;;;20.60;99.90;;;;;;5075001;28;20391;-59
2023/07/03 10:36:03;;;;;;;7.40;2.13;;;20.30;99.90;;;;;;5074676;28;20016;-61
2023/07/03 10:38:39;;;;;;;8.65;1.63;;;20.20;99.90;;;;;;5074664;28;20028;-60
2023/07/03 10:41:13;;;;;;;5.33;1.57;;;20.10;99.90;;;;;;5074934;28;20413;-57
2023/07/03 10:43:45;;;;;;;2.60;1.10;;;20.00;99.90;;;;;;5074499;28;20078;-60
2023/07/03 10:46:22;;;;;;;3.10;1.27;;;19.90;99.90;;;;;;5074513;28;20107;-60
2023/07/03 10:48:49;;;;;;;9.52;1.55;;;19.80;99.90;;;;;;5074512;28;20100;-59
2023/07/03 10:51:33;;;;;;;5.72;1.83;;;19.60;99.90;;;;;;5074687;28;20021;-57
2023/07/03 10:54:25;;;;;;;4.78;1.08;;;19.50;99.90;;;;;;5074243;28;20028;-59
2023/07/03 10:56:55;;;;;;;5.90;1.60;;;19.40;99.90;;;;;;5074541;28;20046;-57
2023/07/03 10:59:26;;;;;;;8.57;2.70;;;19.20;99.90;;;;;;5074463;28;20012;-60
2023/07/03 11:02:37;;;;;;;9.23;1.58;;;19.10;99.90;;;;;;5072898;28;20020;-60
2023/07/03 11:05:28;;;;;;;13.48;1.38;;;18.90;99.90;;;;;;5092023;28;20036;-58
2023/07/03 11:08:19;;;;;;;9.30;1.33;;;18.70;99.90;;;;;;5091918;28;20369;-60
2023/07/03 11:10:57;;;;;;;6.18;1.25;;;18.60;99.90;;;;;;5059808;28;20508;-61
2023/07/03 11:13:41;;;;;;;4.72;1.25;;;18.70;99.90;;;;;;5053996;28;20107;-64
2023/07/03 11:16:14;;;;;;;8.85;1.63;;;19.00;99.90;;;;;;5054235;28;20465;-61
2023/07/03 11:19:14;;;;;;;5.82;1.50;;;19.50;99.90;;;;;;5053806;28;20393;-61
2023/07/03 11:21:40;;;;;;;3.72;0.93;;;20.10;99.90;;;;;;5053946;28;20477;-62
2023/07/03 11:24:17;;;;;;;10.10;1.20;;;20.40;99.90;;;;;;5053334;28;20125;-57
2023/07/03 11:27:08;;;;;;;5.55;1.30;;;20.40;99.90;;;;;;5053739;28;20587;-56
2023/07/03 11:29:35;;;;;;;3.70;1.55;;;20.30;99.90;;;;;;5053679;28;20492;-61
2023/07/03 11:32:02;;;;;;;3.75;1.15;;;20.30;99.90;;;;;;5053557;28;20025;-60
2023/07/03 11:34:28;;;;;;;7.05;1.17;;;20.20;99.90;;;;;;5053564;28;20032;-60
2023/07/03 11:36:55;;;;;;;10.02;1.40;;;20.00;99.90;;;;;;5052250;28;20497;-57
2023/07/03 11:39:30;;;;;;;4.95;1.17;;;19.70;99.90;;;;;;5053401;28;20470;-60
2023/07/03 11:42:01;;;;;;;7.72;1.13;;;19.50;99.90;;;;;;5053493;28;20021;-61
2023/07/03 11:44:42;;;;;;;4.65;1.08;;;19.30;99.90;;;;;;5053302;28;20496;-61
2023/07/03 11:47:25;;;;;;;3.25;1.02;;;19.10;99.90;;;;;;5053557;28;20092;-60
2023/07/03 11:49:59;;;;;;;4.88;0.98;;;18.90;99.90;;;;;;5053332;28;20017;-59
2023/07/03 11:52:31;;;;;;;9.82;1.17;;;18.90;99.90;;;;;;5053218;28;20473;-62
2023/07/03 11:55:04;;;;;;;13.80;2.47;;;18.80;99.90;;;;;;5052276;28;20466;-61
2023/07/03 11:57:36;;;;;;;3.78;0.93;;;19.00;99.90;;;;;;5053214;28;20112;-60
2023/07/03 12:00:22;;;;;;;7.68;0.90;;;19.10;99.90;;;;;;5053296;28;20029;-59
2023/07/03 12:02:59;;;;;;;7.07;0.98;;;19.50;99.90;;;;;;5053198;28;20535;-59
2023/07/03 12:05:44;;;;;;;4.85;0.93;;;19.90;99.90;;;;;;5052982;28;20029;-59
2023/07/03 12:08:36;;;;;;;5.45;0.95;;;20.00;99.90;;;;;;5062131;28;20016;-61
2023/07/03 12:11:03;;;;;;;3.78;1.00;;;20.20;99.90;;;;;;5072960;28;20028;-57
2023/07/03 12:13:41;;;;;;;6.82;0.90;;;20.30;99.90;;;;;;5072824;28;20106;-58
2023/07/03 12:16:17;;;;;;;7.90;0.95;;;20.20;99.80;;;;;;5071568;28;20035;-60
2023/07/03 12:18:43;;;;;;;9.32;0.80;;;20.00;99.90;;;;;;5072800;28;20427;-59
2023/07/03 12:21:09;;;;;;;9.20;0.90;;;20.00;99.90;;;;;;5071617;28;20029;-59
2023/07/03 12:23:41;;;;;;;5.82;0.98;;;19.90;99.90;;;;;;5071072;28;20047;-56
2023/07/03 12:26:12;;;;;;;6.75;1.05;;;19.70;99.90;;;;;;5071515;28;20105;-56
2023/07/03 12:28:38;;;;;;;4.68;1.25;;;19.50;99.90;;;;;;5072797;28;20495;-61
2023/07/03 12:31:18;;;;;;;3.38;1.48;;;19.50;99.90;;;;;;5072273;28;20021;-58
2023/07/03 12:33:57;;;;;;;7.10;0.77;;;19.40;99.90;;;;;;5072682;28;20033;-59
2023/07/03 12:36:31;;;;;;;2.67;0.50;;;19.30;99.90;;;;;;5072610;28;20029;-59
2023/07/03 12:38:58;;;;;;;2.92;1.30;;;19.20;99.90;;;;;;5072970;28;20032;-55
2023/07/03 12:41:27;;;;;;;;;;;19.20;99.90;;;;;;5073311;28;20052;-55
2023/07/03 12:43:53;;;;;;;1.63;0.88;;;19.30;99.90;;;;;;5072534;28;20364;-51
2023/07/03 12:46:37;;;;;;;1.73;0.88;;;19.30;99.90;;;;;;5072545;28;20024;-54
2023/07/03 12:49:17;;;;;;;1.10;0.60;;;19.30;99.90;;;;;;5072595;28;20385;-64
2023/07/03 12:51:53;;;;;;;6.53;0.88;;;19.30;99.90;;;;;;5072803;28;20595;-61
2023/07/03 12:54:20;;;;;;;2.65;0.60;;;19.60;99.90;;;;;;5072529;28;20393;-58
2023/07/03 12:56:46;;;;;;;;;;;19.80;99.70;;;;;;5072830;28;20121;-56
2023/07/03 12:59:16;;;;;;;24.45;1.67;;;19.80;99.10;;;;;;5072445;28;19926;-53